sensor_id;sensor_type;location;lat;lon;timestamp;pressure;altitude;pressure_sealevel;temperature;humidity
7178;BME280;3630;42.146;24.756;2022-12-20T00:01:40;101771.59;;;2.38;65.41
7178;BME280;3630;42.146;24.756;2022-12-20T00:04:09;101772.34;;;2.37;65.87
7178;BME280;3630;42.146;24.756;2022-12-20T00:06:37;101748.34;;;2.23;65.03
7178;BME280;3630;42.146;24.756;2022-12-20T00:09:06;101776.13;;;2.32;65.57
7178;BME280;3630;42.146;24.756;2022-12-20T00:11:33;101777.66;;;2.30;65.53
7178;BME280;3630;42.146;24.756;2022-12-20T00:14:00;101771.81;;;2.31;65.73
7178;BME280;3630;42.146;24.756;2022-12-20T00:16:28;101772.69;;;2.31;65.88
7178;BME280;3630;42.146;24.756;2022-12-20T00:18:57;101768.53;;;2.32;66.03
7178;BME280;3630;42.146;24.756;2022-12-20T00:21:25;101771.94;;;2.22;65.63
7178;BME280;3630;42.146;24.756;2022-12-20T00:23:53;101765.06;;;2.11;66.18
7178;BME280;3630;42.146;24.756;2022-12-20T00:26:22;101758.81;;;2.08;66.65
7178;BME280;3630;42.146;24.756;2022-12-20T00:28:50;101766.19;;;2.15;66.64
7178;BME280;3630;42.146;24.756;2022-12-20T00:31:18;101770.38;;;2.14;66.51
7178;BME280;3630;42.146;24.756;2022-12-20T00:33:47;101758.94;;;2.09;66.71
7178;BME280;3630;42.146;24.756;2022-12-20T00:36:16;101761.22;;;2.06;67.53
7178;BME280;3630;42.146;24.756;2022-12-20T00:38:45;101746.06;;;1.88;67.98
7178;BME280;3630;42.146;24.756;2022-12-20T00:41:13;101741.34;;;1.72;69.35
7178;BME280;3630;42.146;24.756;2022-12-20T00:43:41;101778.75;;;1.85;70.58
7178;BME280;3630;42.146;24.756;2022-12-20T00:46:13;101776.44;;;1.77;71.72
7178;BME280;3630;42.146;24.756;2022-12-20T00:48:41;101760.78;;;1.63;72.92
7178;BME280;3630;42.146;24.756;2022-12-20T00:51:09;101768.13;;;1.60;74.60
7178;BME280;3630;42.146;24.756;2022-12-20T00:53:37;101770.50;;;1.48;76.01
7178;BME280;3630;42.146;24.756;2022-12-20T00:56:06;101764.56;;;1.29;77.04
7178;BME280;3630;42.146;24.756;2022-12-20T00:58:35;101763.66;;;1.29;77.92
7178;BME280;3630;42.146;24.756;2022-12-20T01:01:03;101758.94;;;1.23;78.50
7178;BME280;3630;42.146;24.756;2022-12-20T01:03:30;101757.09;;;1.12;79.11
7178;BME280;3630;42.146;24.756;2022-12-20T01:05:58;101759.28;;;0.99;80.04
7178;BME280;3630;42.146;24.756;2022-12-20T01:08:28;101758.16;;;0.87;80.42
7178;BME280;3630;42.146;24.756;2022-12-20T01:10:59;101753.16;;;0.78;81.47
7178;BME280;3630;42.146;24.756;2022-12-20T01:13:27;101749.94;;;0.43;82.63
7178;BME280;3630;42.146;24.756;2022-12-20T01:15:55;101754.34;;;0.54;82.94
7178;BME280;3630;42.146;24.756;2022-12-20T01:18:22;101738.56;;;0.57;82.36
7178;BME280;3630;42.146;24.756;2022-12-20T01:20:48;101745.88;;;0.54;82.19
7178;BME280;3630;42.146;24.756;2022-12-20T01:23:15;101750.03;;;0.53;82.92
7178;BME280;3630;42.146;24.756;2022-12-20T01:25:42;101732.81;;;0.49;82.22
7178;BME280;3630;42.146;24.756;2022-12-20T01:28:09;101712.81;;;0.34;82.57
7178;BME280;3630;42.146;24.756;2022-12-20T01:30:40;101726.69;;;0.47;82.84
7178;BME280;3630;42.146;24.756;2022-12-20T01:33:07;101725.06;;;0.48;83.07
7178;BME280;3630;42.146;24.756;2022-12-20T01:35:34;101721.97;;;0.42;83.34
7178;BME280;3630;42.146;24.756;2022-12-20T01:38:01;101714.09;;;0.39;82.61
7178;BME280;3630;42.146;24.756;2022-12-20T01:40:27;101703.72;;;0.36;82.16
7178;BME280;3630;42.146;24.756;2022-12-20T01:42:54;101708.19;;;0.38;82.72
7178;BME280;3630;42.146;24.756;2022-12-20T01:45:26;101702.28;;;0.29;82.09
7178;BME280;3630;42.146;24.756;2022-12-20T01:47:56;101705.75;;;0.21;82.33
7178;BME280;3630;42.146;24.756;2022-12-20T01:50:24;101705.88;;;0.23;83.61
7178;BME280;3630;42.146;24.756;2022-12-20T01:52:52;101676.19;;;0.12;82.91
7178;BME280;3630;42.146;24.756;2022-12-20T01:55:21;101693.69;;;0.27;82.78
7178;BME280;3630;42.146;24.756;2022-12-20T01:57:52;101697.34;;;0.31;81.75
7178;BME280;3630;42.146;24.756;2022-12-20T02:00:21;101695.31;;;0.27;82.75
7178;BME280;3630;42.146;24.756;2022-12-20T02:02:49;101699.06;;;0.22;81.87
7178;BME280;3630;42.146;24.756;2022-12-20T02:05:19;101698.84;;;0.29;82.30
7178;BME280;3630;42.146;24.756;2022-12-20T02:07:48;101692.16;;;0.29;82.26
7178;BME280;3630;42.146;24.756;2022-12-20T02:10:18;101687.84;;;0.28;82.12
7178;BME280;3630;42.146;24.756;2022-12-20T02:12:47;101689.34;;;0.26;81.68
7178;BME280;3630;42.146;24.756;2022-12-20T02:15:31;101686.81;;;0.26;81.49
7178;BME280;3630;42.146;24.756;2022-12-20T02:18:13;101679.56;;;0.21;82.22
7178;BME280;3630;42.146;24.756;2022-12-20T02:24:08;101675.50;;;0.31;82.81
7178;BME280;3630;42.146;24.756;2022-12-20T02:29:39;101678.81;;;0.49;82.09
7178;BME280;3630;42.146;24.756;2022-12-20T02:32:13;101687.53;;;0.52;81.42
7178;BME280;3630;42.146;24.756;2022-12-20T02:34:42;101685.16;;;0.54;80.73
7178;BME280;3630;42.146;24.756;2022-12-20T02:37:09;101684.56;;;0.56;79.89
7178;BME280;3630;42.146;24.756;2022-12-20T02:39:38;101680.78;;;0.62;78.78
7178;BME280;3630;42.146;24.756;2022-12-20T02:42:07;101676.63;;;0.62;78.08
7178;BME280;3630;42.146;24.756;2022-12-20T02:44:37;101676.97;;;0.56;76.85
7178;BME280;3630;42.146;24.756;2022-12-20T02:47:27;101676.13;;;0.47;76.97
7178;BME280;3630;42.146;24.756;2022-12-20T02:49:56;101678.53;;;0.46;77.21
7178;BME280;3630;42.146;24.756;2022-12-20T02:52:24;101682.13;;;0.39;76.59
7178;BME280;3630;42.146;24.756;2022-12-20T02:54:55;101669.22;;;0.36;77.17
7178;BME280;3630;42.146;24.756;2022-12-20T02:57:26;101667.00;;;0.31;77.51
7178;BME280;3630;42.146;24.756;2022-12-20T02:59:59;101671.94;;;0.29;77.67
7178;BME280;3630;42.146;24.756;2022-12-20T03:02:29;101669.19;;;0.18;76.69
7178;BME280;3630;42.146;24.756;2022-12-20T03:05:19;101673.78;;;0.22;77.39
7178;BME280;3630;42.146;24.756;2022-12-20T03:07:47;101672.56;;;0.27;77.11
7178;BME280;3630;42.146;24.756;2022-12-20T03:10:14;101666.72;;;0.28;77.64
7178;BME280;3630;42.146;24.756;2022-12-20T03:12:41;101657.78;;;0.31;77.97
7178;BME280;3630;42.146;24.756;2022-12-20T03:15:08;101659.91;;;0.27;77.02
7178;BME280;3630;42.146;24.756;2022-12-20T03:17:37;101663.13;;;0.34;77.05
7178;BME280;3630;42.146;24.756;2022-12-20T03:20:05;101660.47;;;0.33;76.97
7178;BME280;3630;42.146;24.756;2022-12-20T03:22:32;101648.69;;;0.33;77.61
7178;BME280;3630;42.146;24.756;2022-12-20T03:24:59;101652.97;;;0.43;77.91
7178;BME280;3630;42.146;24.756;2022-12-20T03:27:26;101654.59;;;0.42;78.53
7178;BME280;3630;42.146;24.756;2022-12-20T03:29:53;101601.13;;;0.11;78.29
7178;BME280;3630;42.146;24.756;2022-12-20T03:32:20;101642.44;;;0.38;79.07
7178;BME280;3630;42.146;24.756;2022-12-20T03:34:48;101658.38;;;0.56;79.05
7178;BME280;3630;42.146;24.756;2022-12-20T03:37:15;101651.38;;;0.35;79.12
7178;BME280;3630;42.146;24.756;2022-12-20T03:39:42;101667.97;;;0.41;79.48
7178;BME280;3630;42.146;24.756;2022-12-20T03:42:09;101662.88;;;0.50;79.20
7178;BME280;3630;42.146;24.756;2022-12-20T03:44:35;101672.97;;;0.50;78.62
7178;BME280;3630;42.146;24.756;2022-12-20T03:47:03;101676.28;;;0.49;79.02
7178;BME280;3630;42.146;24.756;2022-12-20T03:49:29;101672.25;;;0.51;78.81
7178;BME280;3630;42.146;24.756;2022-12-20T03:51:58;101661.25;;;0.50;78.55
7178;BME280;3630;42.146;24.756;2022-12-20T03:54:24;101676.75;;;0.45;79.04
7178;BME280;3630;42.146;24.756;2022-12-20T03:56:51;101678.66;;;0.47;78.82
7178;BME280;3630;42.146;24.756;2022-12-20T03:59:18;101675.44;;;0.40;78.97
7178;BME280;3630;42.146;24.756;2022-12-20T04:01:45;101677.22;;;0.41;78.60
7178;BME280;3630;42.146;24.756;2022-12-20T04:04:12;101672.31;;;0.42;78.60
7178;BME280;3630;42.146;24.756;2022-12-20T04:06:40;101673.31;;;0.44;78.80
7178;BME280;3630;42.146;24.756;2022-12-20T04:09:08;101666.56;;;0.35;78.69
7178;BME280;3630;42.146;24.756;2022-12-20T04:11:35;101667.44;;;0.35;78.92
7178;BME280;3630;42.146;24.756;2022-12-20T04:14:01;101678.91;;;0.32;79.33
7178;BME280;3630;42.146;24.756;2022-12-20T04:16:28;101683.81;;;0.30;78.38
7178;BME280;3630;42.146;24.756;2022-12-20T04:18:55;101674.13;;;0.35;77.57
7178;BME280;3630;42.146;24.756;2022-12-20T04:21:23;101676.66;;;0.35;77.27
7178;BME280;3630;42.146;24.756;2022-12-20T04:23:50;101677.56;;;0.35;76.97
7178;BME280;3630;42.146;24.756;2022-12-20T04:26:19;101671.72;;;0.36;76.69
7178;BME280;3630;42.146;24.756;2022-12-20T04:28:46;101669.94;;;0.44;76.37
7178;BME280;3630;42.146;24.756;2022-12-20T04:31:13;101680.16;;;0.45;76.58
7178;BME280;3630;42.146;24.756;2022-12-20T04:33:40;101679.09;;;0.52;76.82
7178;BME280;3630;42.146;24.756;2022-12-20T04:36:08;101683.38;;;0.53;76.36
7178;BME280;3630;42.146;24.756;2022-12-20T04:38:35;101644.19;;;0.39;76.00
7178;BME280;3630;42.146;24.756;2022-12-20T04:41:02;101675.00;;;0.63;75.80
7178;BME280;3630;42.146;24.756;2022-12-20T04:43:30;101672.66;;;0.55;75.50
7178;BME280;3630;42.146;24.756;2022-12-20T04:45:57;101673.09;;;0.60;75.51
7178;BME280;3630;42.146;24.756;2022-12-20T04:48:24;101675.47;;;0.58;76.19
7178;BME280;3630;42.146;24.756;2022-12-20T04:50:52;101671.50;;;0.52;76.18
7178;BME280;3630;42.146;24.756;2022-12-20T04:53:20;101667.31;;;0.52;76.78
7178;BME280;3630;42.146;24.756;2022-12-20T04:56:14;101669.59;;;0.49;76.53
7178;BME280;3630;42.146;24.756;2022-12-20T04:58:43;101657.19;;;0.52;76.99
7178;BME280;3630;42.146;24.756;2022-12-20T05:01:10;101664.16;;;0.55;77.20
7178;BME280;3630;42.146;24.756;2022-12-20T05:03:37;101667.25;;;0.61;77.20
7178;BME280;3630;42.146;24.756;2022-12-20T05:06:05;101666.91;;;0.67;76.97
7178;BME280;3630;42.146;24.756;2022-12-20T05:08:32;101648.94;;;0.64;77.29
7178;BME280;3630;42.146;24.756;2022-12-20T05:10:59;101666.03;;;0.66;77.55
7178;BME280;3630;42.146;24.756;2022-12-20T05:13:26;101654.44;;;0.68;77.18
7178;BME280;3630;42.146;24.756;2022-12-20T05:15:55;101659.59;;;0.70;76.61
7178;BME280;3630;42.146;24.756;2022-12-20T05:18:23;101629.81;;;0.57;76.56
7178;BME280;3630;42.146;24.756;2022-12-20T05:20:50;101655.03;;;0.66;76.02
7178;BME280;3630;42.146;24.756;2022-12-20T05:23:37;101644.50;;;0.61;76.41
7178;BME280;3630;42.146;24.756;2022-12-20T05:26:28;101650.25;;;0.69;76.37
7178;BME280;3630;42.146;24.756;2022-12-20T05:28:56;101658.59;;;0.68;76.43
7178;BME280;3630;42.146;24.756;2022-12-20T05:31:24;101650.66;;;0.73;76.20
7178;BME280;3630;42.146;24.756;2022-12-20T05:33:51;101653.94;;;0.72;76.16
7178;BME280;3630;42.146;24.756;2022-12-20T05:36:18;101650.38;;;0.70;76.35
7178;BME280;3630;42.146;24.756;2022-12-20T05:38:45;101643.75;;;0.62;76.09
7178;BME280;3630;42.146;24.756;2022-12-20T05:41:12;101645.38;;;0.62;76.52
7178;BME280;3630;42.146;24.756;2022-12-20T05:43:40;101651.06;;;0.59;76.30
7178;BME280;3630;42.146;24.756;2022-12-20T05:46:07;101646.47;;;0.55;76.38
7178;BME280;3630;42.146;24.756;2022-12-20T05:48:35;101641.84;;;0.59;77.29
7178;BME280;3630;42.146;24.756;2022-12-20T05:51:02;101638.34;;;0.68;76.99
7178;BME280;3630;42.146;24.756;2022-12-20T05:53:29;101643.06;;;0.73;77.07
7178;BME280;3630;42.146;24.756;2022-12-20T05:55:56;101650.94;;;0.76;76.43
7178;BME280;3630;42.146;24.756;2022-12-20T05:58:22;101613.06;;;0.49;77.12
7178;BME280;3630;42.146;24.756;2022-12-20T06:00:49;101646.34;;;0.72;76.58
7178;BME280;3630;42.146;24.756;2022-12-20T06:03:16;101646.66;;;0.85;76.78
7178;BME280;3630;42.146;24.756;2022-12-20T06:05:45;101648.47;;;0.86;77.04
7178;BME280;3630;42.146;24.756;2022-12-20T06:08:12;101642.78;;;0.89;76.79
7178;BME280;3630;42.146;24.756;2022-12-20T06:10:39;101618.94;;;0.77;75.97
7178;BME280;3630;42.146;24.756;2022-12-20T06:13:07;101643.28;;;0.85;75.61
7178;BME280;3630;42.146;24.756;2022-12-20T06:15:35;101652.72;;;0.96;75.77
7178;BME280;3630;42.146;24.756;2022-12-20T06:18:03;101660.81;;;1.02;76.19
7178;BME280;3630;42.146;24.756;2022-12-20T06:20:30;101646.88;;;0.97;76.25
7178;BME280;3630;42.146;24.756;2022-12-20T06:22:59;101653.56;;;0.96;76.86
7178;BME280;3630;42.146;24.756;2022-12-20T06:25:26;101655.50;;;0.99;77.05
7178;BME280;3630;42.146;24.756;2022-12-20T06:27:53;101657.19;;;1.08;77.64
7178;BME280;3630;42.146;24.756;2022-12-20T06:30:20;101630.97;;;1.08;78.02
7178;BME280;3630;42.146;24.756;2022-12-20T06:32:48;101652.59;;;1.23;77.98
7178;BME280;3630;42.146;24.756;2022-12-20T06:35:14;101643.94;;;1.21;78.43
7178;BME280;3630;42.146;24.756;2022-12-20T06:37:42;101624.69;;;1.13;78.71
7178;BME280;3630;42.146;24.756;2022-12-20T06:40:11;101651.66;;;1.12;78.73
7178;BME280;3630;42.146;24.756;2022-12-20T06:42:38;101651.16;;;1.16;79.59
7178;BME280;3630;42.146;24.756;2022-12-20T06:45:06;101650.53;;;1.19;79.01
7178;BME280;3630;42.146;24.756;2022-12-20T06:47:33;101638.44;;;1.35;79.11
7178;BME280;3630;42.146;24.756;2022-12-20T06:50:00;101646.88;;;1.54;78.20
7178;BME280;3630;42.146;24.756;2022-12-20T06:52:27;101646.25;;;2.16;76.86
7178;BME280;3630;42.146;24.756;2022-12-20T06:54:54;101635.47;;;2.49;74.03
7178;BME280;3630;42.146;24.756;2022-12-20T06:57:22;101639.69;;;2.58;72.67
7178;BME280;3630;42.146;24.756;2022-12-20T06:59:49;101643.84;;;2.58;71.91
7178;BME280;3630;42.146;24.756;2022-12-20T07:02:16;101653.63;;;2.43;71.95
7178;BME280;3630;42.146;24.756;2022-12-20T07:04:43;101642.34;;;2.29;71.61
7178;BME280;3630;42.146;24.756;2022-12-20T07:07:11;101650.59;;;2.17;73.07
7178;BME280;3630;42.146;24.756;2022-12-20T07:09:38;101645.09;;;2.02;72.27
7178;BME280;3630;42.146;24.756;2022-12-20T07:12:06;101648.50;;;1.93;72.57
7178;BME280;3630;42.146;24.756;2022-12-20T07:14:34;101643.31;;;1.91;72.63
7178;BME280;3630;42.146;24.756;2022-12-20T07:17:01;101637.09;;;1.88;72.25
7178;BME280;3630;42.146;24.756;2022-12-20T07:19:28;101641.25;;;1.87;72.53
7178;BME280;3630;42.146;24.756;2022-12-20T07:21:55;101640.13;;;1.84;72.03
7178;BME280;3630;42.146;24.756;2022-12-20T07:24:22;101644.19;;;1.92;72.05
7178;BME280;3630;42.146;24.756;2022-12-20T07:26:49;101647.38;;;1.99;70.84
7178;BME280;3630;42.146;24.756;2022-12-20T07:29:16;101640.03;;;2.02;69.65
7178;BME280;3630;42.146;24.756;2022-12-20T07:31:44;101648.28;;;2.00;68.16
7178;BME280;3630;42.146;24.756;2022-12-20T07:34:10;101644.97;;;2.01;68.57
7178;BME280;3630;42.146;24.756;2022-12-20T07:36:37;101641.69;;;2.02;68.73
7178;BME280;3630;42.146;24.756;2022-12-20T07:39:04;101604.41;;;1.91;68.58
7178;BME280;3630;42.146;24.756;2022-12-20T07:41:31;101625.97;;;2.06;67.61
7178;BME280;3630;42.146;24.756;2022-12-20T07:43:58;101627.25;;;2.11;67.77
7178;BME280;3630;42.146;24.756;2022-12-20T07:46:25;101613.94;;;2.13;68.43
7178;BME280;3630;42.146;24.756;2022-12-20T07:48:54;101614.31;;;2.08;67.73
7178;BME280;3630;42.146;24.756;2022-12-20T07:51:24;101618.00;;;2.11;67.34
7178;BME280;3630;42.146;24.756;2022-12-20T07:53:58;101613.78;;;2.12;67.59
7178;BME280;3630;42.146;24.756;2022-12-20T07:56:27;101611.66;;;2.16;67.99
7178;BME280;3630;42.146;24.756;2022-12-20T07:58:57;101617.34;;;2.24;68.42
7178;BME280;3630;42.146;24.756;2022-12-20T08:01:25;101615.81;;;2.26;67.90
7178;BME280;3630;42.146;24.756;2022-12-20T08:03:57;101519.34;;;1.74;67.73
7178;BME280;3630;42.146;24.756;2022-12-20T08:06:25;101603.75;;;2.33;67.95
7178;BME280;3630;42.146;24.756;2022-12-20T08:08:56;101579.06;;;2.21;67.22
7178;BME280;3630;42.146;24.756;2022-12-20T08:11:24;101605.41;;;2.43;67.14
7178;BME280;3630;42.146;24.756;2022-12-20T08:13:53;101599.31;;;2.51;66.55
7178;BME280;3630;42.146;24.756;2022-12-20T08:16:20;101597.28;;;2.57;66.15
7178;BME280;3630;42.146;24.756;2022-12-20T08:18:47;101596.41;;;2.57;66.67
7178;BME280;3630;42.146;24.756;2022-12-20T08:21:15;101595.63;;;2.68;66.76
7178;BME280;3630;42.146;24.756;2022-12-20T08:23:42;101589.16;;;2.71;65.91
7178;BME280;3630;42.146;24.756;2022-12-20T08:26:08;101584.56;;;2.77;66.42
7178;BME280;3630;42.146;24.756;2022-12-20T08:28:36;101584.63;;;2.89;66.19
7178;BME280;3630;42.146;24.756;2022-12-20T08:31:05;101588.31;;;2.92;65.09
7178;BME280;3630;42.146;24.756;2022-12-20T08:33:32;101590.81;;;3.03;65.04
7178;BME280;3630;42.146;24.756;2022-12-20T08:36:00;101586.78;;;2.94;63.94
7178;BME280;3630;42.146;24.756;2022-12-20T08:38:29;101573.78;;;2.80;64.49
7178;BME280;3630;42.146;24.756;2022-12-20T08:41:01;101574.97;;;2.95;64.89
7178;BME280;3630;42.146;24.756;2022-12-20T08:43:28;101575.47;;;3.01;64.35
7178;BME280;3630;42.146;24.756;2022-12-20T08:45:55;101567.69;;;3.10;64.50
7178;BME280;3630;42.146;24.756;2022-12-20T08:48:22;101568.78;;;3.13;64.62
7178;BME280;3630;42.146;24.756;2022-12-20T08:50:53;101562.03;;;3.24;62.58
7178;BME280;3630;42.146;24.756;2022-12-20T08:53:20;101529.47;;;3.08;63.86
7178;BME280;3630;42.146;24.756;2022-12-20T08:55:48;101559.34;;;3.32;63.84
7178;BME280;3630;42.146;24.756;2022-12-20T08:58:15;101554.59;;;3.37;63.88
7178;BME280;3630;42.146;24.756;2022-12-20T09:00:42;101547.09;;;3.38;64.35
7178;BME280;3630;42.146;24.756;2022-12-20T09:03:09;101545.44;;;3.39;64.44
7178;BME280;3630;42.146;24.756;2022-12-20T09:05:43;101537.56;;;3.36;63.93
7178;BME280;3630;42.146;24.756;2022-12-20T09:08:10;101535.63;;;3.43;63.18
7178;BME280;3630;42.146;24.756;2022-12-20T09:10:37;101529.59;;;3.53;63.28
7178;BME280;3630;42.146;24.756;2022-12-20T09:13:05;101532.13;;;3.53;63.54
7178;BME280;3630;42.146;24.756;2022-12-20T09:15:32;101527.56;;;3.49;62.80
7178;BME280;3630;42.146;24.756;2022-12-20T09:17:59;101525.28;;;3.52;62.91
7178;BME280;3630;42.146;24.756;2022-12-20T09:20:27;101525.50;;;3.55;63.30
7178;BME280;3630;42.146;24.756;2022-12-20T09:22:54;101513.81;;;3.57;63.75
7178;BME280;3630;42.146;24.756;2022-12-20T09:25:21;101511.44;;;3.70;63.49
7178;BME280;3630;42.146;24.756;2022-12-20T09:27:49;101510.13;;;3.75;63.77
7178;BME280;3630;42.146;24.756;2022-12-20T09:30:17;101500.47;;;3.71;62.16
7178;BME280;3630;42.146;24.756;2022-12-20T09:32:44;101505.47;;;3.70;61.23
7178;BME280;3630;42.146;24.756;2022-12-20T09:35:11;101502.25;;;3.72;61.56
7178;BME280;3630;42.146;24.756;2022-12-20T09:37:38;101499.53;;;3.81;61.51
7178;BME280;3630;42.146;24.756;2022-12-20T09:40:08;101477.44;;;3.91;62.37
7178;BME280;3630;42.146;24.756;2022-12-20T09:42:40;101478.88;;;3.99;61.48
7178;BME280;3630;42.146;24.756;2022-12-20T09:45:10;101481.00;;;4.05;60.13
7178;BME280;3630;42.146;24.756;2022-12-20T09:47:43;101483.09;;;4.10;58.98
7178;BME280;3630;42.146;24.756;2022-12-20T09:50:13;101481.03;;;4.16;58.93
7178;BME280;3630;42.146;24.756;2022-12-20T09:52:51;101469.59;;;4.23;57.85
7178;BME280;3630;42.146;24.756;2022-12-20T09:55:26;101460.56;;;4.27;58.49
7178;BME280;3630;42.146;24.756;2022-12-20T09:58:10;101461.44;;;4.39;58.97
7178;BME280;3630;42.146;24.756;2022-12-20T10:00:44;101443.53;;;4.14;59.26
7178;BME280;3630;42.146;24.756;2022-12-20T10:03:18;101451.81;;;4.35;57.85
7178;BME280;3630;42.146;24.756;2022-12-20T10:05:50;101441.19;;;4.40;57.68
7178;BME280;3630;42.146;24.756;2022-12-20T10:08:25;101439.75;;;4.32;55.76
7178;BME280;3630;42.146;24.756;2022-12-20T10:10:58;101439.63;;;4.42;56.43
7178;BME280;3630;42.146;24.756;2022-12-20T10:13:37;101439.63;;;4.54;56.74
7178;BME280;3630;42.146;24.756;2022-12-20T10:16:20;101405.91;;;4.45;56.40
7178;BME280;3630;42.146;24.756;2022-12-20T10:19:01;101428.53;;;4.65;57.04
7178;BME280;3630;42.146;24.756;2022-12-20T10:21:41;101426.22;;;4.68;57.00
7178;BME280;3630;42.146;24.756;2022-12-20T10:24:15;101423.56;;;4.66;56.98
7178;BME280;3630;42.146;24.756;2022-12-20T10:26:44;101420.66;;;4.73;56.48
7178;BME280;3630;42.146;24.756;2022-12-20T10:29:11;101407.22;;;4.40;57.27
7178;BME280;3630;42.146;24.756;2022-12-20T10:31:38;101403.00;;;4.52;57.68
7178;BME280;3630;42.146;24.756;2022-12-20T10:34:07;101398.91;;;4.54;56.59
7178;BME280;3630;42.146;24.756;2022-12-20T10:36:35;101394.47;;;4.63;56.23
7178;BME280;3630;42.146;24.756;2022-12-20T10:39:05;101392.44;;;4.70;56.90
7178;BME280;3630;42.146;24.756;2022-12-20T10:41:44;101390.09;;;4.73;57.30
7178;BME280;3630;42.146;24.756;2022-12-20T10:44:18;101352.06;;;4.63;57.11
7178;BME280;3630;42.146;24.756;2022-12-20T10:46:48;101368.97;;;4.74;57.30
7178;BME280;3630;42.146;24.756;2022-12-20T10:49:28;101360.19;;;4.83;56.96
7178;BME280;3630;42.146;24.756;2022-12-20T10:51:58;101355.84;;;4.93;57.33
7178;BME280;3630;42.146;24.756;2022-12-20T10:54:29;101364.03;;;4.89;55.90
7178;BME280;3630;42.146;24.756;2022-12-20T10:56:57;101357.50;;;4.93;55.93
7178;BME280;3630;42.146;24.756;2022-12-20T10:59:31;101361.91;;;4.95;55.56
7178;BME280;3630;42.146;24.756;2022-12-20T11:01:58;101345.94;;;4.98;55.58
7178;BME280;3630;42.146;24.756;2022-12-20T11:04:28;101338.03;;;5.06;55.35
7178;BME280;3630;42.146;24.756;2022-12-20T11:06:56;101340.72;;;5.08;54.19
7178;BME280;3630;42.146;24.756;2022-12-20T11:09:27;101329.22;;;5.01;54.74
7178;BME280;3630;42.146;24.756;2022-12-20T11:12:04;101327.16;;;5.09;54.33
7178;BME280;3630;42.146;24.756;2022-12-20T11:14:33;101324.66;;;5.22;53.83
7178;BME280;3630;42.146;24.756;2022-12-20T11:17:04;101313.72;;;5.36;53.59
7178;BME280;3630;42.146;24.756;2022-12-20T11:22:36;101303.72;;;5.39;52.75
7178;BME280;3630;42.146;24.756;2022-12-20T11:25:21;101302.03;;;5.26;53.43
7178;BME280;3630;42.146;24.756;2022-12-20T11:28:07;101294.13;;;5.35;54.06
7178;BME280;3630;42.146;24.756;2022-12-20T11:30:42;101285.72;;;5.49;52.78
7178;BME280;3630;42.146;24.756;2022-12-20T11:36:14;101274.91;;;5.66;52.12
7178;BME280;3630;42.146;24.756;2022-12-20T11:38:48;101275.78;;;5.67;51.86
7178;BME280;3630;42.146;24.756;2022-12-20T11:41:23;101265.41;;;5.64;52.00
7178;BME280;3630;42.146;24.756;2022-12-20T11:44:03;101267.56;;;5.71;51.88
7178;BME280;3630;42.146;24.756;2022-12-20T11:47:04;101261.88;;;5.75;51.05
7178;BME280;3630;42.146;24.756;2022-12-20T11:49:57;101255.69;;;5.84;51.40
7178;BME280;3630;42.146;24.756;2022-12-20T11:52:34;101231.38;;;5.76;50.35
7178;BME280;3630;42.146;24.756;2022-12-20T11:55:08;101250.28;;;5.80;51.00
7178;BME280;3630;42.146;24.756;2022-12-20T11:57:45;101246.94;;;5.81;50.56
7178;BME280;3630;42.146;24.756;2022-12-20T12:00:14;101233.94;;;5.76;50.57
7178;BME280;3630;42.146;24.756;2022-12-20T12:02:46;101222.72;;;5.74;50.50
7178;BME280;3630;42.146;24.756;2022-12-20T12:05:18;101231.06;;;5.72;50.78
7178;BME280;3630;42.146;24.756;2022-12-20T12:07:52;101220.88;;;5.72;50.67
7178;BME280;3630;42.146;24.756;2022-12-20T12:10:22;101226.47;;;5.66;51.26
7178;BME280;3630;42.146;24.756;2022-12-20T12:12:56;101215.38;;;5.53;51.84
7178;BME280;3630;42.146;24.756;2022-12-20T12:15:29;101208.16;;;5.46;51.33
7178;BME280;3630;42.146;24.756;2022-12-20T12:18:02;101209.72;;;5.44;51.23
7178;BME280;3630;42.146;24.756;2022-12-20T12:20:47;101210.69;;;5.19;52.26
7178;BME280;3630;42.146;24.756;2022-12-20T12:23:20;101205.50;;;5.31;52.41
7178;BME280;3630;42.146;24.756;2022-12-20T12:25:50;101204.31;;;5.13;53.25
7178;BME280;3630;42.146;24.756;2022-12-20T12:28:19;101196.00;;;5.15;52.44
7178;BME280;3630;42.146;24.756;2022-12-20T12:30:49;101203.16;;;5.08;52.60
7178;BME280;3630;42.146;24.756;2022-12-20T12:33:21;101199.78;;;4.96;53.15
7178;BME280;3630;42.146;24.756;2022-12-20T12:36:14;101206.16;;;5.02;52.83
7178;BME280;3630;42.146;24.756;2022-12-20T12:39:21;101204.41;;;5.01;53.43
7178;BME280;3630;42.146;24.756;2022-12-20T12:42:32;101183.81;;;5.11;53.40
7178;BME280;3630;42.146;24.756;2022-12-20T12:45:06;101195.09;;;5.28;52.07
7178;BME280;3630;42.146;24.756;2022-12-20T12:47:39;101198.34;;;5.25;52.43
7178;BME280;3630;42.146;24.756;2022-12-20T12:50:17;101198.16;;;5.35;53.02
7178;BME280;3630;42.146;24.756;2022-12-20T12:52:49;101200.91;;;5.52;52.20
7178;BME280;3630;42.146;24.756;2022-12-20T12:55:39;101197.06;;;5.45;51.99
7178;BME280;3630;42.146;24.756;2022-12-20T12:58:36;101191.00;;;5.43;52.00
7178;BME280;3630;42.146;24.756;2022-12-20T13:01:07;101190.53;;;5.35;51.77
7178;BME280;3630;42.146;24.756;2022-12-20T13:03:38;101202.84;;;5.43;53.02
7178;BME280;3630;42.146;24.756;2022-12-20T13:06:42;101195.88;;;5.53;52.61
7178;BME280;3630;42.146;24.756;2022-12-20T13:09:18;101195.59;;;5.62;52.98
7178;BME280;3630;42.146;24.756;2022-12-20T13:11:48;101195.97;;;5.68;51.80
7178;BME280;3630;42.146;24.756;2022-12-20T13:14:46;101193.00;;;5.75;52.45
7178;BME280;3630;42.146;24.756;2022-12-20T13:17:44;101187.31;;;5.79;52.56
7178;BME280;3630;42.146;24.756;2022-12-20T13:20:21;101192.22;;;5.89;52.59
7178;BME280;3630;42.146;24.756;2022-12-20T13:23:05;101190.06;;;5.95;52.05
7178;BME280;3630;42.146;24.756;2022-12-20T13:25:39;101191.34;;;5.88;51.38
7178;BME280;3630;42.146;24.756;2022-12-20T13:31:30;101182.59;;;5.98;51.31
7178;BME280;3630;42.146;24.756;2022-12-20T13:33:59;101181.00;;;6.00;51.49
7178;BME280;3630;42.146;24.756;2022-12-20T13:36:33;101147.28;;;5.91;51.42
7178;BME280;3630;42.146;24.756;2022-12-20T13:41:45;101180.78;;;6.10;50.86
7178;BME280;3630;42.146;24.756;2022-12-20T13:44:32;101180.13;;;6.00;51.04
7178;BME280;3630;42.146;24.756;2022-12-20T13:47:06;101184.97;;;5.82;51.56